Time;durP1;ratioP1;P1;durP2;ratioP2;P2;SDS_P1;SDS_P2;PMS_P1;PMS_P2;Temp;Humidity;BMP_temperature;BMP_pressure;BME280_temperature;BME280_humidity;BME280_pressure;Samples;Min_cycle;Max_cycle;Signal;HPM_P1;HPM_P2
2021/06/11 00:02:18;;;;;;;;;;;;;;;22.85;59.77;99432.09;5092234;28;19951;-52
2021/06/11 00:04:43;;;;;;;;;;;;;;;22.77;60.03;99438.16;5091938;28;19912;-52
2021/06/11 00:07:09;;;;;;;;;;;;;;;22.64;60.36;99434.25;5092532;28;20289;-51
2021/06/11 00:09:34;;;;;;;;;;;;;;;22.44;61.06;99432.59;5092270;28;19916;-51
2021/06/11 00:11:59;;;;;;;;;;;;;;;22.43;61.15;99431.81;5092515;28;19912;-51
2021/06/11 00:14:24;;;;;;;;;;;;;;;22.44;61.35;99429.88;5092304;28;20390;-51
2021/06/11 00:16:50;;;;;;;;;;;;;;;22.22;62.25;99427.69;5092038;28;19955;-50
2021/06/11 00:19:15;;;;;;;;;;;;;;;22.28;61.41;99426.56;5092359;28;20387;-50
2021/06/11 00:21:40;;;;;;;;;;;;;;;22.09;62.27;99418.34;5097254;28;19916;-50
2021/06/11 00:24:06;;;;;;;;;;;;;;;21.91;63.03;99417.16;5112765;28;20358;-52
2021/06/11 00:26:31;;;;;;;;;;;;;;;22.09;62.34;99425.66;5112377;28;19916;-51
2021/06/11 00:28:56;;;;;;;;;;;;;;;22.06;61.95;99430.53;5112355;28;20406;-50
2021/06/11 00:31:22;;;;;;;;;;;;;;;22.02;62.09;99428.72;5112102;28;19919;-49
2021/06/11 00:33:47;;;;;;;;;;;;;;;22.10;61.80;99421.84;5112123;28;19912;-51
2021/06/11 00:36:12;;;;;;;;;;;;;;;22.18;61.82;99430.16;5112170;28;20260;-51
2021/06/11 00:38:37;;;;;;;;;;;;;;;22.24;61.53;99428.22;5112046;28;20174;-50
2021/06/11 00:41:03;;;;;;;;;;;;;;;22.24;60.79;99426.31;5110653;28;19911;-51
2021/06/11 00:43:28;;;;;;;;;;;;;;;22.31;61.05;99427.88;5112524;28;19911;-52
2021/06/11 00:45:53;;;;;;;;;;;;;;;22.35;61.04;99432.44;5111906;28;20006;-51
2021/06/11 00:48:19;;;;;;;;;;;;;;;22.34;60.93;99432.72;5112185;28;20028;-52
2021/06/11 00:50:44;;;;;;;;;;;;;;;22.48;60.68;99440.97;5111856;28;19919;-53
2021/06/11 00:53:10;;;;;;;;;;;;;;;22.48;60.76;99432.84;5111899;28;19912;-51
2021/06/11 00:55:35;;;;;;;;;;;;;;;22.36;60.95;99431.34;5099971;28;19919;-50
2021/06/11 00:58:00;;;;;;;;;;;;;;;22.21;61.29;99431.47;5091521;28;20106;-49
2021/06/11 01:00:26;;;;;;;;;;;;;;;22.08;61.10;99429.47;5091496;28;19916;-50
2021/06/11 01:02:51;;;;;;;;;;;;;;;21.83;61.51;99417.78;5091416;28;20423;-52
2021/06/11 01:05:16;;;;;;;;;;;;;;;21.82;61.95;99416.19;5091438;28;19919;-51
2021/06/11 01:07:42;;;;;;;;;;;;;;;21.76;61.79;99409.19;5091632;28;19916;-50
2021/06/11 01:10:08;;;;;;;;;;;;;;;21.99;60.93;99415.72;5090131;28;19919;-52
2021/06/11 01:12:33;;;;;;;;;;;;;;;21.79;61.53;99412.13;5091102;28;19916;-52
2021/06/11 01:14:59;;;;;;;;;;;;;;;21.68;61.95;99410.63;5091466;28;20042;-52
2021/06/11 01:17:24;;;;;;;;;;;;;;;21.94;61.13;99416.59;5089507;28;19995;-51
2021/06/11 01:19:49;;;;;;;;;;;;;;;22.05;60.65;99417.31;5091096;28;20000;-51
2021/06/11 01:22:47;;;;;;;;;;;;;;;22.09;60.51;99417.53;5100043;28;20389;-51
2021/06/11 01:25:13;;;;;;;;;;;;;;;21.73;61.47;99416.00;5099125;28;19912;-50
2021/06/11 01:27:39;;;;;;;;;;;;;;;21.89;61.10;99421.25;5111611;28;20398;-51
2021/06/11 01:30:06;;;;;;;;;;;;;;;21.67;61.47;99412.53;5110481;28;19912;-52
2021/06/11 01:32:32;;;;;;;;;;;;;;;21.76;61.28;99417.31;5111480;28;19916;-51
2021/06/11 01:34:57;;;;;;;;;;;;;;;21.69;61.08;99411.44;5111435;28;19968;-52
2021/06/11 01:37:23;;;;;;;;;;;;;;;21.70;61.59;99410.34;5111246;28;19915;-51
2021/06/11 01:39:54;;;;;;;;;;;;;;;21.83;61.17;99407.75;5111129;28;19919;-53
2021/06/11 01:42:19;;;;;;;;;;;;;;;21.79;60.92;99409.44;5111103;28;19958;-51
2021/06/11 01:44:44;;;;;;;;;;;;;;;21.69;60.69;99404.13;5109857;28;19957;-53
2021/06/11 01:47:10;;;;;;;;;;;;;;;21.63;61.19;99403.34;5110608;28;19916;-51
2021/06/11 01:49:35;;;;;;;;;;;;;;;21.58;61.66;99402.59;5089562;28;19912;-52
2021/06/11 01:52:01;;;;;;;;;;;;;;;21.64;61.63;99402.25;5089470;28;19966;-52
2021/06/11 01:54:26;;;;;;;;;;;;;;;21.72;61.18;99402.72;5090877;28;20003;-51
2021/06/11 01:56:51;;;;;;;;;;;;;;;21.70;60.96;99405.72;5089310;28;19956;-51
2021/06/11 01:59:16;;;;;;;;;;;;;;;21.55;61.18;99401.28;5072411;28;19919;-52
2021/06/11 02:01:42;;;;;;;;;;;;;;;21.65;60.77;99401.16;5089962;28;19912;-51
2021/06/11 02:04:07;;;;;;;;;;;;;;;21.68;60.74;99394.38;5089353;28;19912;-52
2021/06/11 02:06:32;;;;;;;;;;;;;;;21.62;60.93;99404.44;5089453;28;19961;-53
2021/06/11 02:08:58;;;;;;;;;;;;;;;21.45;61.78;99399.44;5089631;28;19942;-51
2021/06/11 02:11:23;;;;;;;;;;;;;;;21.22;62.81;99398.25;5089413;28;19912;-50
2021/06/11 02:13:49;;;;;;;;;;;;;;;21.42;62.14;99402.69;5089457;28;19916;-51
2021/06/11 02:16:15;;;;;;;;;;;;;;;21.31;61.68;99395.75;5090742;28;19928;-50
2021/06/11 02:18:41;;;;;;;;;;;;;;;21.35;61.24;99396.78;5090715;28;19920;-51
2021/06/11 02:21:06;;;;;;;;;;;;;;;21.48;61.24;99382.63;5089585;28;19920;-52
2021/06/11 02:23:31;;;;;;;;;;;;;;;21.45;61.54;99388.63;5109787;28;20014;-51
2021/06/11 02:25:57;;;;;;;;;;;;;;;21.13;62.69;99388.31;5111483;28;19930;-54
2021/06/11 02:28:22;;;;;;;;;;;;;;;21.23;61.90;99390.97;5115013;28;20377;-50
2021/06/11 02:30:47;;;;;;;;;;;;;;;21.04;62.44;99386.22;5114914;28;19919;-52
2021/06/11 02:33:13;;;;;;;;;;;;;;;21.20;62.28;99397.72;5114755;28;19912;-50
2021/06/11 02:35:38;;;;;;;;;;;;;;;21.21;62.03;99398.53;5113522;28;19961;-52
2021/06/11 02:38:04;;;;;;;;;;;;;;;21.29;61.32;99390.63;5114915;28;19920;-52
2021/06/11 02:40:29;;;;;;;;;;;;;;;21.35;60.79;99396.00;5114891;28;19912;-51
2021/06/11 02:42:57;;;;;;;;;;;;;;;21.51;59.74;99394.00;5114590;28;19911;-50
2021/06/11 02:45:24;;;;;;;;;;;;;;;21.53;59.71;99392.59;5113279;28;20312;-52
2021/06/11 02:47:54;;;;;;;;;;;;;;;21.27;60.65;99389.28;5113365;28;19912;-52
2021/06/11 02:50:20;;;;;;;;;;;;;;;21.43;60.17;99393.47;5113054;28;20403;-49
2021/06/11 02:52:52;;;;;;;;;;;;;;;21.48;60.27;99393.47;5113130;28;19907;-49
2021/06/11 02:55:19;;;;;;;;;;;;;;;21.53;60.09;99399.94;5114395;28;19911;-52
2021/06/11 02:58:03;;;;;;;;;;;;;;;21.90;59.29;99401.22;5113019;28;19919;-52
2021/06/11 03:00:28;;;;;;;;;;;;;;;21.96;59.65;99398.16;5104719;28;19912;-52
2021/06/11 03:03:03;;;;;;;;;;;;;;;22.18;58.83;99403.06;5092250;28;20003;-52
2021/06/11 03:05:28;;;;;;;;;;;;;;;22.32;57.64;99407.81;5094038;28;19994;-52
2021/06/11 03:07:55;;;;;;;;;;;;;;;22.34;57.75;99408.34;5093677;28;19998;-52
2021/06/11 03:10:25;;;;;;;;;;;;;;;22.58;58.46;99409.13;5092473;28;20257;-49
2021/06/11 03:12:50;;;;;;;;;;;;;;;22.76;56.65;99402.09;5092807;28;19966;-50
2021/06/11 03:15:16;;;;;;;;;;;;;;;22.65;56.27;99398.69;5092532;28;19920;-50
2021/06/11 03:17:42;;;;;;;;;;;;;;;22.58;56.83;99409.13;5093249;28;19920;-53
2021/06/11 03:20:08;;;;;;;;;;;;;;;22.50;58.19;99403.53;5092210;28;19939;-49
2021/06/11 03:22:35;;;;;;;;;;;;;;;22.46;58.80;99414.13;5106164;28;19912;-49
2021/06/11 03:25:02;;;;;;;;;;;;;;;22.70;57.27;99387.00;5112404;28;20299;-51
2021/06/11 03:27:32;;;;;;;;;;;;;;;22.64;56.46;99402.53;5113730;28;20368;-51
2021/06/11 03:30:05;;;;;;;;;;;;;;;22.81;55.88;99417.50;5113012;28;19946;-52
2021/06/11 03:32:31;;;;;;;;;;;;;;;22.65;55.73;99416.88;5110698;28;19912;-53
2021/06/11 03:35:00;;;;;;;;;;;;;;;22.45;56.95;99410.63;5111993;28;20318;-52
2021/06/11 03:37:25;;;;;;;;;;;;;;;22.40;56.77;99410.69;5111540;28;19916;-50
2021/06/11 03:39:58;;;;;;;;;;;;;;;22.51;56.05;99411.38;5110051;28;19922;-51
2021/06/11 03:42:23;;;;;;;;;;;;;;;22.53;56.01;99414.59;5111873;28;19968;-52
2021/06/11 03:44:49;;;;;;;;;;;;;;;22.58;56.39;99416.44;5112007;28;20294;-51
2021/06/11 03:47:16;;;;;;;;;;;;;;;22.56;56.35;99421.34;5112709;28;19950;-53
2021/06/11 03:49:41;;;;;;;;;;;;;;;22.54;55.79;99416.22;5112880;28;19918;-49
2021/06/11 03:52:07;;;;;;;;;;;;;;;22.84;55.38;99423.13;5112549;28;20299;-51
2021/06/11 03:54:32;;;;;;;;;;;;;;;23.03;54.79;99420.44;5110994;28;19912;-50
2021/06/11 03:56:57;;;;;;;;;;;;;;;23.08;54.98;99422.28;5110968;28;19916;-52
2021/06/11 03:59:23;;;;;;;;;;;;;;;23.27;54.37;99426.91;5110485;28;19919;-51
2021/06/11 04:01:48;;;;;;;;;;;;;;;23.46;53.48;99426.88;5091720;28;19973;-50
2021/06/11 04:04:14;;;;;;;;;;;;;;;22.80;53.25;99402.31;5091344;28;19944;-52
2021/06/11 04:06:41;;;;;;;;;;;;;;;22.97;54.35;99435.16;5091069;28;19999;-49
2021/06/11 04:09:08;;;;;;;;;;;;;;;23.08;53.45;99426.91;5089899;28;19916;-52
2021/06/11 04:11:37;;;;;;;;;;;;;;;22.95;54.15;99431.94;5090741;28;20005;-49
2021/06/11 04:14:02;;;;;;;;;;;;;;;23.15;54.28;99432.75;5091376;28;19981;-50
2021/06/11 04:16:27;;;;;;;;;;;;;;;23.40;53.52;99439.72;5088904;28;19924;-49
2021/06/11 04:18:54;;;;;;;;;;;;;;;23.57;52.55;99439.16;5074251;28;19927;-51
2021/06/11 04:21:20;;;;;;;;;;;;;;;23.72;51.91;99433.50;5125750;27;20014;-51
2021/06/11 04:23:45;;;;;;;;;;;;;;;23.77;52.23;99432.59;5102533;28;19961;-51
2021/06/11 04:26:11;;;;;;;;;;;;;;;23.99;51.93;99437.41;5124266;27;20332;-52
2021/06/11 04:28:36;;;;;;;;;;;;;;;24.00;51.71;99428.91;5123233;27;19999;-51
2021/06/11 04:31:01;;;;;;;;;;;;;;;24.02;52.38;99433.25;5123835;27;19923;-49
2021/06/11 04:33:27;;;;;;;;;;;;;;;23.76;52.99;99444.53;5088450;28;20341;-51
2021/06/11 04:35:52;;;;;;;;;;;;;;;23.79;52.76;99441.28;5085895;28;19916;-50
2021/06/11 04:38:18;;;;;;;;;;;;;;;24.03;52.04;99432.97;5075756;28;19920;-51
2021/06/11 04:40:43;;;;;;;;;;;;;;;23.99;51.93;99432.75;5070383;28;19950;-53
2021/06/11 04:43:09;;;;;;;;;;;;;;;23.77;52.85;99438.00;5070401;28;19912;-48
2021/06/11 04:45:34;;;;;;;;;;;;;;;23.90;52.58;99439.97;5069125;28;20392;-52
2021/06/11 04:48:00;;;;;;;;;;;;;;;24.15;51.58;99440.63;5086544;28;19912;-52
2021/06/11 04:50:25;;;;;;;;;;;;;;;24.29;51.68;99443.34;5089694;28;20368;-51
2021/06/11 04:52:51;;;;;;;;;;;;;;;23.93;52.08;99454.88;5089602;28;20041;-50
2021/06/11 04:55:16;;;;;;;;;;;;;;;23.76;53.02;99450.81;5089662;28;20020;-49
2021/06/11 04:57:41;;;;;;;;;;;;;;;23.95;52.61;99449.94;5089601;28;20003;-50
2021/06/11 05:00:09;;;;;;;;;;;;;;;24.07;52.27;99453.00;5089533;28;19959;-49
2021/06/11 05:02:34;;;;;;;;;;;;;;;24.21;52.12;99461.16;5089846;28;20276;-52
2021/06/11 05:04:59;;;;;;;;;;;;;;;24.14;51.74;99461.56;5089328;28;19961;-51
2021/06/11 05:07:24;;;;;;;;;;;;;;;24.15;52.35;99459.66;5089486;28;20002;-52
2021/06/11 05:09:50;;;;;;;;;;;;;;;23.80;52.22;99465.44;5089824;28;19965;-51
2021/06/11 05:12:15;;;;;;;;;;;;;;;24.17;51.93;99462.88;5089855;28;20011;-51
2021/06/11 05:14:41;;;;;;;;;;;;;;;24.34;51.09;99463.06;5089892;28;20007;-51
2021/06/11 05:17:06;;;;;;;;;;;;;;;24.26;51.23;99463.00;5089247;28;19931;-51
2021/06/11 05:19:31;;;;;;;;;;;;;;;24.15;51.69;99456.94;5089442;28;19973;-51
2021/06/11 05:21:56;;;;;;;;;;;;;;;24.32;50.66;99459.06;5097338;28;19911;-50
2021/06/11 05:24:22;;;;;;;;;;;;;;;24.44;50.30;99464.00;5109413;28;19912;-50
2021/06/11 05:26:47;;;;;;;;;;;;;;;24.47;50.28;99460.66;5109702;28;20314;-50
2021/06/11 05:29:12;;;;;;;;;;;;;;;24.51;50.75;99467.13;5109597;28;19916;-51
2021/06/11 05:31:38;;;;;;;;;;;;;;;24.26;50.73;99468.44;5109701;28;20279;-50
2021/06/11 05:34:03;;;;;;;;;;;;;;;24.10;51.42;99471.41;5109750;28;19912;-51
2021/06/11 05:36:28;;;;;;;;;;;;;;;24.38;50.88;99474.16;5090862;28;19920;-50
2021/06/11 05:38:53;;;;;;;;;;;;;;;24.59;50.54;99478.09;5090135;28;19912;-51
2021/06/11 05:41:19;;;;;;;;;;;;;;;25.11;51.35;99479.75;5090231;28;19916;-50
2021/06/11 05:43:45;;;;;;;;;;;;;;;25.61;50.08;99484.31;5090471;28;19912;-51
2021/06/11 05:46:11;;;;;;;;;;;;;;;26.29;48.01;99485.06;5088932;28;19919;-49
2021/06/11 05:48:39;;;;;;;;;;;;;;;26.78;47.55;99485.09;5089058;28;19999;-52
2021/06/11 05:51:04;;;;;;;;;;;;;;;27.15;45.54;99485.63;5089460;28;20007;-51
2021/06/11 05:53:30;;;;;;;;;;;;;;;27.60;45.17;99486.13;5088632;28;20027;-52
2021/06/11 05:55:55;;;;;;;;;;;;;;;27.75;44.71;99487.53;5088657;28;19919;-51
2021/06/11 05:58:20;;;;;;;;;;;;;;;28.03;44.10;99488.00;5088928;28;19973;-51
2021/06/11 06:00:45;;;;;;;;;;;;;;;28.45;42.85;99482.69;5088616;28;19912;-51
2021/06/11 06:03:11;;;;;;;;;;;;;;;28.77;41.72;99488.66;5092640;28;19935;-51
2021/06/11 06:05:36;;;;;;;;;;;;;;;28.78;41.35;99478.50;5092843;28;19912;-49
2021/06/11 06:08:01;;;;;;;;;;;;;;;28.99;40.65;99484.00;5092434;28;20374;-49
2021/06/11 06:10:27;;;;;;;;;;;;;;;28.94;41.48;99478.72;5092892;28;19912;-49
2021/06/11 06:12:52;;;;;;;;;;;;;;;29.79;40.26;99483.06;5093015;28;19923;-50
2021/06/11 06:15:17;;;;;;;;;;;;;;;30.42;38.47;99482.81;5093045;28;19920;-49
2021/06/11 06:17:43;;;;;;;;;;;;;;;30.79;37.81;99480.88;5092771;28;19927;-51
2021/06/11 06:20:08;;;;;;;;;;;;;;;31.33;36.28;99473.44;5092752;28;19912;-52
2021/06/11 06:22:34;;;;;;;;;;;;;;;31.67;36.60;99479.50;5105597;28;19919;-51
2021/06/11 06:24:59;;;;;;;;;;;;;;;31.35;34.59;99480.16;5113382;28;19916;-52
2021/06/11 06:27:24;;;;;;;;;;;;;;;31.67;35.27;99477.53;5113373;28;19922;-51
2021/06/11 06:29:50;;;;;;;;;;;;;;;31.80;35.36;99472.78;5112939;28;19982;-50
2021/06/11 06:32:15;;;;;;;;;;;;;;;31.88;35.32;99482.03;5113062;28;19912;-49
2021/06/11 06:34:40;;;;;;;;;;;;;;;31.95;33.59;99483.00;5113211;28;19984;-50
2021/06/11 06:37:10;;;;;;;;;;;;;;;31.85;33.98;99480.75;5112752;28;20364;-52
2021/06/11 06:39:35;;;;;;;;;;;;;;;30.64;35.34;99476.09;5113243;28;19918;-52
2021/06/11 06:42:00;;;;;;;;;;;;;;;30.95;34.96;99471.94;5112976;27;19998;-48
2021/06/11 06:44:26;;;;;;;;;;;;;;;31.23;34.18;99476.69;5112824;28;20385;-50
2021/06/11 06:46:51;;;;;;;;;;;;;;;31.20;33.86;99475.41;5112838;28;19912;-51
2021/06/11 06:49:16;;;;;;;;;;;;;;;31.45;33.77;99472.56;5112479;28;20018;-52
2021/06/11 06:51:41;;;;;;;;;;;;;;;31.61;34.41;99475.41;5112174;28;20047;-49
2021/06/11 06:54:07;;;;;;;;;;;;;;;31.69;34.56;99469.72;5110856;28;19911;-51
2021/06/11 06:56:32;;;;;;;;;;;;;;;31.80;34.22;99464.53;5112187;28;19985;-51
2021/06/11 06:58:59;;;;;;;;;;;;;;;31.71;33.84;99463.88;5112011;28;20422;-49
2021/06/11 07:01:25;;;;;;;;;;;;;;;31.61;34.28;99469.91;5110330;28;20291;-50
2021/06/11 07:03:57;;;;;;;;;;;;;;;31.66;34.47;99467.72;5091893;28;19935;-52
2021/06/11 07:06:23;;;;;;;;;;;;;;;31.41;33.61;99468.94;5091685;28;20383;-50
2021/06/11 07:08:48;;;;;;;;;;;;;;;31.35;33.20;99469.16;5091872;28;20031;-51
2021/06/11 07:11:13;;;;;;;;;;;;;;;31.20;32.51;99469.13;5090700;28;19999;-52
2021/06/11 07:13:38;;;;;;;;;;;;;;;30.94;32.92;99462.91;5092764;28;19916;-38
2021/06/11 07:16:04;;;;;;;;;;;;;;;30.93;33.43;99463.25;5092307;28;19927;-39
2021/06/11 07:18:29;;;;;;;;;;;;;;;31.02;33.98;99454.88;5092717;28;20028;-39
2021/06/11 07:20:54;;;;;;;;;;;;;;;31.11;35.24;99456.34;5093114;28;19965;-38
2021/06/11 07:23:20;;;;;;;;;;;;;;;31.49;34.36;99457.00;5093272;28;19996;-38
2021/06/11 07:25:45;;;;;;;;;;;;;;;31.54;33.90;99459.50;5092816;28;19908;-38
2021/06/11 07:28:10;;;;;;;;;;;;;;;31.84;34.04;99465.41;5092382;28;19912;-37
2021/06/11 07:30:36;;;;;;;;;;;;;;;32.29;33.03;99463.41;5092215;28;19969;-38
2021/06/11 07:33:01;;;;;;;;;;;;;;;32.20;31.42;99460.06;5092262;28;20376;-37
2021/06/11 07:35:26;;;;;;;;;;;;;;;32.20;32.37;99460.06;5092112;28;19917;-38
2021/06/11 07:37:51;;;;;;;;;;;;;;;32.04;33.50;99455.31;5091652;28;20348;-36
2021/06/11 07:40:17;;;;;;;;;;;;;;;32.03;32.73;99452.97;5091560;28;19912;-39
2021/06/11 07:42:42;;;;;;;;;;;;;;;32.60;32.00;99456.31;5092175;28;19916;-38
2021/06/11 07:45:07;;;;;;;;;;;;;;;32.60;33.06;99453.56;5091843;28;19912;-38
2021/06/11 07:47:33;;;;;;;;;;;;;;;33.29;31.78;99453.84;5091633;28;20011;-38
2021/06/11 07:49:58;;;;;;;;;;;;;;;33.67;31.44;99443.97;5091732;28;20057;-38
2021/06/11 07:52:24;;;;;;;;;;;;;;;34.43;30.64;99451.56;5091591;28;19912;-38
2021/06/11 07:54:49;;;;;;;;;;;;;;;34.43;29.42;99451.56;5092281;28;19920;-38
2021/06/11 07:57:14;;;;;;;;;;;;;;;35.01;28.39;99447.63;5090181;28;20388;-38
2021/06/11 07:59:41;;;;;;;;;;;;;;;35.17;27.29;99442.75;5091652;28;19916;-37
2021/06/11 08:02:06;;;;;;;;;;;;;;;35.11;26.63;99444.22;5092109;28;19915;-38
2021/06/11 08:04:32;;;;;;;;;;;;;;;34.91;27.48;99440.81;5091908;28;19916;-39
2021/06/11 08:06:57;;;;;;;;;;;;;;;34.56;27.85;99443.88;5092053;28;20273;-38
2021/06/11 08:09:24;;;;;;;;;;;;;;;34.50;28.60;99437.88;5091774;28;19955;-38
2021/06/11 08:11:50;;;;;;;;;;;;;;;34.35;27.33;99436.03;5091706;28;20296;-38
2021/06/11 08:14:15;;;;;;;;;;;;;;;34.09;28.21;99438.38;5091739;28;19920;-38
2021/06/11 08:16:40;;;;;;;;;;;;;;;33.23;29.16;99423.03;5091481;28;19973;-38
2021/06/11 08:19:06;;;;;;;;;;;;;;;33.76;30.07;99430.75;5091269;28;20010;-37
2021/06/11 08:21:31;;;;;;;;;;;;;;;33.54;28.93;99421.25;5095300;28;20022;-42
2021/06/11 08:23:57;;;;;;;;;;;;;;;33.30;30.63;99422.34;5111114;28;20105;-36
2021/06/11 08:26:22;;;;;;;;;;;;;;;33.04;29.44;99420.25;5111508;28;20364;-38
2021/06/11 08:28:47;;;;;;;;;;;;;;;32.83;30.95;99417.84;5111443;28;19912;-38
2021/06/11 08:31:12;;;;;;;;;;;;;;;33.64;29.17;99419.88;5111329;27;20485;-38
2021/06/11 08:33:38;;;;;;;;;;;;;;;32.89;29.87;99416.41;5111001;28;20376;-38
2021/06/11 08:36:03;;;;;;;;;;;;;;;33.61;28.62;99398.53;5111345;28;20105;-38
2021/06/11 08:38:28;;;;;;;;;;;;;;;33.87;28.26;99404.13;5111354;28;19976;-38
2021/06/11 08:40:54;;;;;;;;;;;;;;;34.39;27.80;99401.00;5110620;28;20432;-38
2021/06/11 08:43:19;;;;;;;;;;;;;;;34.80;27.35;99401.19;5111111;28;19912;-38
2021/06/11 08:45:45;;;;;;;;;;;;;;;35.26;26.65;99400.97;5110721;28;19946;-37
2021/06/11 08:48:10;;;;;;;;;;;;;;;35.43;26.43;99402.31;5092042;28;20002;-38
2021/06/11 08:50:36;;;;;;;;;;;;;;;35.99;27.04;99401.28;5090310;28;19999;-39
2021/06/11 08:53:01;;;;;;;;;;;;;;;36.34;26.13;99385.31;5090408;28;19912;-38
2021/06/11 08:55:27;;;;;;;;;;;;;;;36.33;26.79;99397.59;5090852;28;20372;-38
2021/06/11 08:57:52;;;;;;;;;;;;;;;36.35;25.22;99393.25;5090579;28;19927;-37
2021/06/11 09:00:19;;;;;;;;;;;;;;;36.00;25.47;99394.56;5090517;28;19923;-38
2021/06/11 09:03:04;;;;;;;;;;;;;;;35.08;26.47;99384.16;5090792;28;19912;-40
2021/06/11 09:05:29;;;;;;;;;;;;;;;35.28;27.46;99384.81;5090614;28;19989;-39
2021/06/11 09:07:57;;;;;;;;;;;;;;;34.69;26.59;99386.44;5090631;28;19912;-38
2021/06/11 09:10:22;;;;;;;;;;;;;;;34.66;26.95;99380.47;5089214;28;19912;-38
2021/06/11 09:12:47;;;;;;;;;;;;;;;34.47;26.71;99386.91;5090572;28;19998;-38
2021/06/11 09:15:13;;;;;;;;;;;;;;;34.21;26.54;99376.66;5090910;28;19982;-38
2021/06/11 09:17:42;;;;;;;;;;;;;;;34.58;27.06;99380.75;5090048;28;19921;-38
2021/06/11 09:20:09;;;;;;;;;;;;;;;34.58;27.45;99389.03;5089795;28;20029;-37
2021/06/11 09:22:38;;;;;;;;;;;;;;;34.30;28.29;99389.44;5090405;28;19946;-38
2021/06/11 09:25:23;;;;;;;;;;;;;;;33.87;26.35;99393.09;5090243;28;19922;-37
2021/06/11 09:27:49;;;;;;;;;;;;;;;34.16;26.28;99387.25;5089815;28;19924;-38
2021/06/11 09:30:15;;;;;;;;;;;;;;;33.73;27.31;99392.06;5089939;28;19913;-38
2021/06/11 09:32:40;;;;;;;;;;;;;;;32.85;28.04;99382.47;5090274;28;20034;-38
2021/06/11 09:35:06;;;;;;;;;;;;;;;32.14;26.58;99379.72;5090298;28;19952;-38
2021/06/11 09:37:34;;;;;;;;;;;;;;;32.20;27.84;99385.75;5089424;28;20276;-38
2021/06/11 09:40:10;;;;;;;;;;;;;;;32.70;28.33;99373.91;5089585;28;20029;-38
2021/06/11 09:42:36;;;;;;;;;;;;;;;31.81;28.33;99383.59;5089723;28;19981;-36
2021/06/11 09:45:03;;;;;;;;;;;;;;;31.29;28.11;99387.34;5089748;28;19964;-38
2021/06/11 09:47:38;;;;;;;;;;;;;;;32.00;28.21;99379.34;5089713;28;19912;-38
2021/06/11 09:50:19;;;;;;;;;;;;;;;32.39;26.62;99360.22;5089769;28;19923;-38
2021/06/11 09:52:51;;;;;;;;;;;;;;;32.79;23.94;99376.47;5089883;28;19918;-39
2021/06/11 09:55:23;;;;;;;;;;;;;;;33.52;24.07;99373.94;5089969;28;19999;-37
2021/06/11 09:57:51;;;;;;;;;;;;;;;33.23;25.06;99364.34;5089772;28;19917;-36
2021/06/11 10:00:17;;;;;;;;;;;;;;;33.39;25.42;99365.03;5088330;28;19916;-38
2021/06/11 10:02:42;;;;;;;;;;;;;;;34.61;23.45;99366.19;5088551;28;20421;-38
2021/06/11 10:05:07;;;;;;;;;;;;;;;34.68;23.34;99360.00;5090835;28;19912;-38
2021/06/11 10:07:33;;;;;;;;;;;;;;;34.83;24.12;99359.78;5089956;28;19916;-38
2021/06/11 10:09:58;;;;;;;;;;;;;;;34.60;24.83;99370.13;5090530;28;19973;-38
2021/06/11 10:12:23;;;;;;;;;;;;;;;34.70;24.31;99366.72;5088459;28;19939;-38
2021/06/11 10:14:48;;;;;;;;;;;;;;;33.65;26.98;99363.53;5089730;28;19916;-38
2021/06/11 10:17:14;;;;;;;;;;;;;;;33.00;27.23;99361.53;5089510;28;19920;-38
2021/06/11 10:19:39;;;;;;;;;;;;;;;32.70;28.11;99359.34;5089613;28;20364;-38
2021/06/11 10:22:05;;;;;;;;;;;;;;;33.29;26.32;99366.44;5088526;28;20015;-37
2021/06/11 10:24:30;;;;;;;;;;;;;;;33.82;25.84;99360.28;5089568;28;20280;-37
2021/06/11 10:26:55;;;;;;;;;;;;;;;34.03;25.36;99361.78;5089693;28;19919;-38
2021/06/11 10:29:21;;;;;;;;;;;;;;;34.56;25.87;99356.28;5089999;28;19923;-38
2021/06/11 10:31:47;;;;;;;;;;;;;;;33.08;26.96;99350.25;5089917;28;19989;-38
2021/06/11 10:34:12;;;;;;;;;;;;;;;33.29;27.05;99335.31;5088493;28;19939;-38
2021/06/11 10:36:42;;;;;;;;;;;;;;;33.53;27.02;99353.47;5087620;28;19919;-37
2021/06/11 10:39:07;;;;;;;;;;;;;;;33.30;27.06;99347.91;5089340;28;19926;-38
2021/06/11 10:41:51;;;;;;;;;;;;;;;32.44;27.28;99344.19;5088957;28;19920;-37
2021/06/11 10:44:29;;;;;;;;;;;;;;;32.57;27.22;99344.13;5089195;28;19913;-38
2021/06/11 10:47:14;;;;;;;;;;;;;;;33.30;25.84;99354.25;5089497;28;20006;-40
2021/06/11 10:50:02;;;;;;;;;;;;;;;32.01;27.89;99381.75;5093332;28;19912;-37
2021/06/11 10:52:38;;;;;;;;;;;;;;;31.04;31.77;99354.47;5093292;28;19912;-38
2021/06/11 10:55:21;;;;;;;;;;;;;;;29.66;33.23;99355.28;5092959;28;19923;-37
2021/06/11 10:57:52;;;;;;;;;;;;;;;29.14;34.41;99354.69;5092477;28;20414;-38
2021/06/11 11:00:26;;;;;;;;;;;;;;;29.31;34.02;99370.16;5093340;28;19922;-38
2021/06/11 11:02:55;;;;;;;;;;;;;;;29.87;33.61;99366.97;5093192;28;19912;-36
2021/06/11 11:05:29;;;;;;;;;;;;;;;29.03;34.94;99359.78;5093095;28;19952;-37
2021/06/11 11:07:55;;;;;;;;;;;;;;;27.86;37.32;99392.34;5093158;28;19912;-37
2021/06/11 11:10:34;;;;;;;;;;;;;;;26.66;39.34;99369.19;5093076;28;19973;-37
2021/06/11 11:13:00;;;;;;;;;;;;;;;26.51;39.53;99358.69;5093132;28;20384;-38
2021/06/11 11:15:41;;;;;;;;;;;;;;;26.49;38.49;99350.03;5092907;28;20011;-40
2021/06/11 11:18:07;;;;;;;;;;;;;;;27.14;37.31;99331.91;5093151;28;19960;-37
2021/06/11 11:20:34;;;;;;;;;;;;;;;27.65;37.56;99337.59;5091298;28;19924;-37
2021/06/11 11:23:00;;;;;;;;;;;;;;;27.00;38.21;99326.63;5092253;28;19993;-38
2021/06/11 11:25:25;;;;;;;;;;;;;;;26.38;39.11;99327.72;5092841;28;20375;-38
2021/06/11 11:27:52;;;;;;;;;;;;;;;26.79;39.08;99339.31;5092793;28;20338;-38
2021/06/11 11:30:19;;;;;;;;;;;;;;;26.83;38.84;99323.91;5092633;28;19912;-38
2021/06/11 11:32:44;;;;;;;;;;;;;;;27.11;38.93;99325.16;5090825;28;19981;-39
2021/06/11 11:35:09;;;;;;;;;;;;;;;27.43;38.69;99328.47;5092462;28;20313;-38
2021/06/11 11:37:35;;;;;;;;;;;;;;;27.79;37.44;99313.56;5092068;28;19923;-38
2021/06/11 11:40:00;;;;;;;;;;;;;;;27.00;38.19;99314.91;5092245;28;20006;-37
2021/06/11 11:42:25;;;;;;;;;;;;;;;26.31;39.49;99321.91;5092213;28;19912;-37
2021/06/11 11:44:51;;;;;;;;;;;;;;;26.22;38.89;99315.66;5092446;28;19912;-39
2021/06/11 11:47:16;;;;;;;;;;;;;;;26.30;39.22;99314.88;5091872;28;20338;-37
2021/06/11 11:49:41;;;;;;;;;;;;;;;26.14;38.77;99318.06;5092120;28;19912;-37
2021/06/11 11:52:07;;;;;;;;;;;;;;;25.62;39.80;99319.78;5092088;28;19916;-38
2021/06/11 11:54:33;;;;;;;;;;;;;;;25.52;39.86;99308.03;5092376;28;20343;-38
2021/06/11 11:56:59;;;;;;;;;;;;;;;25.42;40.29;99315.66;5091961;28;19927;-38
2021/06/11 11:59:24;;;;;;;;;;;;;;;25.90;40.05;99323.88;5090933;28;20021;-38
2021/06/11 12:01:49;;;;;;;;;;;;;;;25.90;40.01;99328.53;5091690;28;19920;-38
2021/06/11 12:04:15;;;;;;;;;;;;;;;25.74;40.29;99337.13;5091654;28;19923;-38
2021/06/11 12:06:40;;;;;;;;;;;;;;;25.78;40.01;99337.31;5091392;28;19912;-38
2021/06/11 12:09:06;;;;;;;;;;;;;;;25.72;40.39;99350.28;5091659;28;19950;-38
2021/06/11 12:11:31;;;;;;;;;;;;;;;25.98;40.05;99354.25;5091745;28;20012;-37
2021/06/11 12:13:56;;;;;;;;;;;;;;;26.51;39.64;99364.16;5091796;28;20315;-39
2021/06/11 12:16:22;;;;;;;;;;;;;;;26.45;40.34;99371.69;5091538;28;20339;-38
2021/06/11 12:18:47;;;;;;;;;;;;;;;26.29;40.64;99376.81;5091318;28;19927;-37
2021/06/11 12:21:12;;;;;;;;;;;;;;;26.65;39.97;99386.66;5091414;28;19916;-39
2021/06/11 12:23:38;;;;;;;;;;;;;;;27.29;39.89;99396.97;5091708;28;19912;-38
2021/06/11 12:26:03;;;;;;;;;;;;;;;27.92;38.15;99421.13;5091520;28;19916;-39
2021/06/11 12:28:29;;;;;;;;;;;;;;;28.28;37.05;99433.53;5091484;28;19912;-38
2021/06/11 12:30:54;;;;;;;;;;;;;;;27.49;38.09;99452.88;5091559;28;19912;-37
2021/06/11 12:33:20;;;;;;;;;;;;;;;27.04;39.95;99450.44;5090532;28;20082;-38
2021/06/11 12:35:47;;;;;;;;;;;;;;;26.27;41.12;99421.84;5091280;28;20211;-39
2021/06/11 12:38:12;;;;;;;;;;;;;;;25.92;42.39;99454.44;5090831;28;20303;-39
2021/06/11 12:40:38;;;;;;;;;;;;;;;25.52;43.28;99451.59;5091076;28;19999;-38
2021/06/11 12:43:05;;;;;;;;;;;;;;;25.72;42.89;99453.81;5091456;28;19920;-38
2021/06/11 12:45:30;;;;;;;;;;;;;;;24.91;44.47;99460.03;5091022;28;19912;-38